createdAt,value
2019-06-19T00:00:33.275Z,0.00
2019-06-19T00:01:32.927Z,0.00
2019-06-19T00:02:33.168Z,0.00
2019-06-19T00:03:32.972Z,0.00
2019-06-19T00:04:32.968Z,0.00
2019-06-19T00:05:33.312Z,0.00
2019-06-19T00:06:32.789Z,0.00
2019-06-19T00:07:32.379Z,0.00
2019-06-19T00:08:33.529Z,0.00
2019-06-19T00:09:33.143Z,0.00
2019-06-19T00:10:32.748Z,0.00
2019-06-19T00:11:33.334Z,0.00
2019-06-19T00:12:33.232Z,0.00
2019-06-19T00:13:32.942Z,0.00
2019-06-19T00:14:33.242Z,0.00
2019-06-19T00:15:32.919Z,0.00
2019-06-19T00:16:32.907Z,0.00
2019-06-19T00:17:33.052Z,0.00
2019-06-19T00:18:33.464Z,0.00
2019-06-19T00:19:36.725Z,0.00
2019-06-19T00:20:33.510Z,0.00
2019-06-19T00:21:33.663Z,0.00
2019-06-19T00:22:33.994Z,0.00
2019-06-19T00:23:33.969Z,0.00
2019-06-19T00:24:34.123Z,0.00
2019-06-19T00:25:34.276Z,0.00
2019-06-19T00:26:34.432Z,0.00
2019-06-19T00:27:34.583Z,0.00
2019-06-19T00:28:34.734Z,0.00
2019-06-19T00:29:40.339Z,0.00
2019-06-19T00:30:35.041Z,0.00
2019-06-19T00:31:35.196Z,0.00
2019-06-19T00:32:35.348Z,0.00
2019-06-19T00:33:35.500Z,0.00
2019-06-19T00:34:35.653Z,0.00
2019-06-19T00:35:35.805Z,0.00
2019-06-19T00:36:35.959Z,0.00
2019-06-19T00:37:36.110Z,0.00
2019-06-19T00:38:36.264Z,0.00
2019-06-19T00:39:36.420Z,0.00
2019-06-19T00:40:36.572Z,0.00
2019-06-19T00:41:36.725Z,0.00
2019-06-19T00:42:36.879Z,0.00
2019-06-19T00:43:37.033Z,0.00
2019-06-19T00:44:37.184Z,0.00
2019-06-19T00:45:37.336Z,0.00
2019-06-19T00:46:37.494Z,0.00
2019-06-19T00:47:37.642Z,0.00
2019-06-19T00:48:37.794Z,0.00
2019-06-19T00:49:37.950Z,0.00
2019-06-19T00:50:38.103Z,0.00
2019-06-19T00:51:38.256Z,0.00
2019-06-19T00:52:40.704Z,0.00
2019-06-19T00:53:38.566Z,0.00
2019-06-19T00:54:38.726Z,0.00
2019-06-19T00:55:40.764Z,0.00
2019-06-19T00:56:40.760Z,0.00
2019-06-19T00:57:41.038Z,0.00
2019-06-19T00:58:41.727Z,0.00
2019-06-19T00:59:52.348Z,0.00
2019-06-19T01:00:41.279Z,0.00
2019-06-19T01:01:41.639Z,0.00
2019-06-19T01:02:40.693Z,0.00
2019-06-19T01:03:41.464Z,0.00
2019-06-19T01:04:40.787Z,0.00
2019-06-19T01:05:41.602Z,0.00
2019-06-19T01:06:40.717Z,0.00
2019-06-19T01:07:41.449Z,0.00
2019-06-19T01:08:42.016Z,0.00
2019-06-19T01:09:41.481Z,0.00
2019-06-19T01:10:41.728Z,0.00
2019-06-19T01:11:41.317Z,0.00
2019-06-19T01:12:41.656Z,0.00
2019-06-19T01:13:41.662Z,0.00
2019-06-19T01:14:41.774Z,0.00
2019-06-19T01:15:42.344Z,0.00
2019-06-19T01:16:42.115Z,0.00
2019-06-19T01:17:42.231Z,0.00
2019-06-19T01:18:42.383Z,0.00
2019-06-19T01:19:42.537Z,0.00
2019-06-19T01:20:42.690Z,0.00
2019-06-19T01:21:42.842Z,0.00
2019-06-19T01:22:42.992Z,0.00
2019-06-19T01:23:43.145Z,0.00
2019-06-19T01:24:43.301Z,0.00
2019-06-19T01:25:43.452Z,0.00
2019-06-19T01:26:43.646Z,0.00
2019-06-19T01:27:43.762Z,0.00
2019-06-19T01:28:43.929Z,0.00
2019-06-19T01:29:44.072Z,0.00
2019-06-19T01:30:44.234Z,0.00
2019-06-19T01:31:44.387Z,0.00
2019-06-19T01:32:44.524Z,0.00
2019-06-19T01:33:44.685Z,0.00
2019-06-19T01:34:44.832Z,0.00
2019-06-19T01:35:44.987Z,0.00
2019-06-19T01:36:45.138Z,0.00
2019-06-19T01:37:45.290Z,0.00
2019-06-19T01:38:45.445Z,0.00
2019-06-19T01:39:45.597Z,0.00
2019-06-19T01:40:45.749Z,0.00
2019-06-19T01:41:45.905Z,0.00
2019-06-19T01:42:46.058Z,0.00
2019-06-19T01:43:46.211Z,0.00
2019-06-19T01:44:46.362Z,0.00
2019-06-19T01:45:46.522Z,0.00
2019-06-19T01:46:46.665Z,0.00
2019-06-19T01:47:46.827Z,0.00
2019-06-19T01:48:46.969Z,0.00
2019-06-19T01:49:47.144Z,0.00
2019-06-19T01:50:47.273Z,0.00
2019-06-19T01:51:47.428Z,0.00
2019-06-19T01:52:47.581Z,0.00
2019-06-19T01:53:47.736Z,0.00
2019-06-19T01:54:47.894Z,0.00
2019-06-19T01:55:48.039Z,0.00
2019-06-19T01:56:48.194Z,0.00
2019-06-19T01:57:48.349Z,0.00
2019-06-19T01:58:50.727Z,0.00
2019-06-19T01:59:50.810Z,0.00
2019-06-19T02:00:51.134Z,0.00
2019-06-19T02:01:51.740Z,0.00
2019-06-19T02:02:51.233Z,0.00
2019-06-19T02:03:51.427Z,0.00
2019-06-19T02:04:51.018Z,0.00
2019-06-19T02:05:50.956Z,0.00
2019-06-19T02:06:52.141Z,0.00
2019-06-19T02:07:51.553Z,0.00
2019-06-19T02:08:51.168Z,0.00
2019-06-19T02:09:51.593Z,0.00
2019-06-19T02:10:51.443Z,0.00
2019-06-19T02:11:51.007Z,0.00
2019-06-19T02:12:51.676Z,0.00
2019-06-19T02:13:51.360Z,0.00
2019-06-19T02:14:51.185Z,0.00
2019-06-19T02:15:51.088Z,0.00
2019-06-19T02:16:52.188Z,0.00
2019-06-19T02:17:51.657Z,4.00
2019-06-19T02:18:51.766Z,4.00
2019-06-19T02:19:51.699Z,4.00
2019-06-19T02:20:51.858Z,4.00
2019-06-19T02:21:52.004Z,0.00
2019-06-19T02:22:52.159Z,4.00
2019-06-19T02:23:52.314Z,4.00
2019-06-19T02:24:52.459Z,4.00
2019-06-19T02:25:54.406Z,4.00
2019-06-19T02:26:52.766Z,4.00
2019-06-19T02:27:52.915Z,4.00
2019-06-19T02:28:53.071Z,4.00
2019-06-19T02:29:53.225Z,8.00
2019-06-19T02:31:04.515Z,4.00
2019-06-19T02:31:54.274Z,8.00
2019-06-19T02:32:53.682Z,8.00
2019-06-19T02:33:53.834Z,12.00
2019-06-19T02:34:53.988Z,12.00
2019-06-19T02:35:54.141Z,12.00
2019-06-19T02:36:54.298Z,12.00
2019-06-19T02:37:54.448Z,16.00
2019-06-19T02:38:54.602Z,20.00
2019-06-19T02:39:54.752Z,20.00
2019-06-19T02:40:54.904Z,24.00
2019-06-19T02:41:55.057Z,24.00
2019-06-19T02:42:55.212Z,28.00
2019-06-19T02:43:55.366Z,32.00
2019-06-19T02:44:55.518Z,36.00
2019-06-19T02:45:55.670Z,40.00
2019-06-19T02:46:55.823Z,44.00
2019-06-19T02:47:55.976Z,48.00
2019-06-19T02:48:56.127Z,56.00
2019-06-19T02:49:56.284Z,64.00
2019-06-19T02:50:56.432Z,72.00
2019-06-19T02:51:56.590Z,76.00
2019-06-19T02:52:56.738Z,84.00
2019-06-19T02:53:56.892Z,92.00
2019-06-19T02:54:57.045Z,100.00
2019-06-19T02:55:57.199Z,112.00
2019-06-19T02:56:57.352Z,124.00
2019-06-19T02:57:57.506Z,132.00
2019-06-19T02:58:57.662Z,144.00
2019-06-19T02:59:57.811Z,156.00
2019-06-19T03:01:10.293Z,172.00
2019-06-19T03:01:58.120Z,184.00
2019-06-19T03:02:58.285Z,200.00
2019-06-19T03:03:58.427Z,208.00
2019-06-19T03:04:58.596Z,224.00
2019-06-19T03:05:58.744Z,240.00
2019-06-19T03:06:58.901Z,256.00
2019-06-19T03:07:59.052Z,272.00
2019-06-19T03:08:59.208Z,288.00
2019-06-19T03:09:59.362Z,304.00
2019-06-19T03:10:59.516Z,328.00
2019-06-19T03:11:59.672Z,344.00
2019-06-19T03:12:59.822Z,368.00
2019-06-19T03:13:59.977Z,388.00
2019-06-19T03:15:00.140Z,412.00
2019-06-19T03:16:00.281Z,436.00
2019-06-19T03:17:00.437Z,456.00
2019-06-19T03:18:00.591Z,484.00
2019-06-19T03:19:00.743Z,520.00
2019-06-19T03:20:00.900Z,560.00
2019-06-19T03:21:01.048Z,600.00
2019-06-19T03:22:01.201Z,648.00
2019-06-19T03:23:01.355Z,692.00
2019-06-19T03:24:01.514Z,744.00
2019-06-19T03:25:01.793Z,808.00
2019-06-19T03:26:01.805Z,860.00
2019-06-19T03:27:02.158Z,912.00
2019-06-19T03:28:02.125Z,960.00
2019-06-19T03:29:02.269Z,1004.00
2019-06-19T03:30:02.424Z,1048.00
2019-06-19T03:31:02.579Z,1092.00
2019-06-19T03:32:02.732Z,1132.00
2019-06-19T03:33:02.984Z,1180.00
2019-06-19T03:34:03.038Z,1232.00
2019-06-19T03:35:03.191Z,1288.00
2019-06-19T03:36:03.350Z,1340.00
2019-06-19T03:37:03.499Z,1396.00
2019-06-19T03:38:03.654Z,1456.00
2019-06-19T03:39:03.800Z,1512.00
2019-06-19T03:40:03.959Z,1556.00
2019-06-19T03:41:04.104Z,1596.00
2019-06-19T03:42:04.260Z,1632.00
2019-06-19T03:43:04.409Z,1692.00
2019-06-19T03:44:04.564Z,1756.00
2019-06-19T03:45:04.719Z,1828.00
2019-06-19T03:46:04.869Z,1904.00
2019-06-19T03:47:05.025Z,1984.00
2019-06-19T03:48:05.177Z,2060.00
2019-06-19T03:49:05.332Z,2132.00
2019-06-19T03:50:05.483Z,2192.00
2019-06-19T03:51:05.637Z,2244.00
2019-06-19T03:52:05.789Z,2312.00
2019-06-19T03:53:05.942Z,2372.00
2019-06-19T03:54:06.104Z,2436.00
2019-06-19T03:55:06.253Z,2492.00
2019-06-19T03:56:06.406Z,2544.00
2019-06-19T03:57:06.562Z,2596.00
2019-06-19T03:58:06.715Z,2656.00
2019-06-19T03:59:06.867Z,2708.00
2019-06-19T04:00:07.022Z,2756.00
2019-06-19T04:01:07.174Z,2800.00
2019-06-19T04:02:07.327Z,2844.00
2019-06-19T04:03:07.480Z,2876.00
2019-06-19T04:04:07.637Z,2904.00
2019-06-19T04:05:07.791Z,2932.00
2019-06-19T04:06:07.942Z,2960.00
2019-06-19T04:07:08.100Z,2988.00
2019-06-19T04:08:08.250Z,3028.00
2019-06-19T04:09:08.402Z,3080.00
2019-06-19T04:10:08.557Z,3148.00
2019-06-19T04:11:08.708Z,3228.00
2019-06-19T04:12:08.866Z,3316.00
2019-06-19T04:13:09.019Z,3400.00
2019-06-19T04:14:09.172Z,3484.00
2019-06-19T04:15:09.326Z,3560.00
2019-06-19T04:16:09.634Z,3648.00
2019-06-19T04:17:09.635Z,3760.00
2019-06-19T04:18:09.782Z,3908.00
2019-06-19T04:19:09.934Z,4056.00
2019-06-19T04:20:10.091Z,4256.00
2019-06-19T04:21:10.243Z,4416.00
2019-06-19T04:22:10.396Z,4600.00
2019-06-19T04:23:10.550Z,4820.00
2019-06-19T04:24:10.703Z,5004.00
2019-06-19T04:25:10.857Z,5108.00
2019-06-19T04:26:11.010Z,5284.00
2019-06-19T04:27:11.164Z,5464.00
2019-06-19T04:28:11.344Z,5592.00
2019-06-19T04:29:11.504Z,5748.00
2019-06-19T04:30:11.627Z,5856.00
2019-06-19T04:31:11.780Z,5952.00
2019-06-19T04:32:14.424Z,6024.00
2019-06-19T04:33:12.090Z,6096.00
2019-06-19T04:34:12.251Z,6132.00
2019-06-19T04:35:12.411Z,6212.00
2019-06-19T04:36:12.556Z,6252.00
2019-06-19T04:37:12.711Z,6276.00
2019-06-19T04:38:12.865Z,6308.00
2019-06-19T04:39:13.019Z,6352.00
2019-06-19T04:40:13.173Z,6396.00
2019-06-19T04:41:13.326Z,6424.00
2019-06-19T04:42:13.480Z,6424.00
2019-06-19T04:43:13.637Z,6408.00
2019-06-19T04:44:13.790Z,6384.00
2019-06-19T04:45:13.944Z,6356.00
2019-06-19T04:46:14.097Z,6292.00
2019-06-19T04:47:16.113Z,6204.00
2019-06-19T04:48:14.411Z,6052.00
2019-06-19T04:49:14.535Z,5972.00
2019-06-19T04:50:14.690Z,5988.00
2019-06-19T04:51:14.845Z,5972.00
2019-06-19T04:52:15.013Z,5872.00
2019-06-19T04:53:15.157Z,5620.00
2019-06-19T04:54:15.310Z,5672.00
2019-06-19T04:55:15.538Z,5864.00
2019-06-19T04:56:15.624Z,6028.00
2019-06-19T04:57:15.783Z,6116.00
2019-06-19T04:58:15.942Z,6168.00
2019-06-19T04:59:16.089Z,6292.00
2019-06-19T05:00:16.243Z,6468.00
2019-06-19T05:01:16.398Z,7004.00
2019-06-19T05:02:21.032Z,7256.00
2019-06-19T05:03:16.710Z,7432.00
2019-06-19T05:04:16.862Z,7500.00
2019-06-19T05:05:17.020Z,7552.00
2019-06-19T05:06:17.177Z,7572.00
2019-06-19T05:07:17.328Z,7604.00
2019-06-19T05:08:17.480Z,7660.00
2019-06-19T05:09:17.635Z,7720.00
2019-06-19T05:10:17.791Z,7808.00
2019-06-19T05:11:17.948Z,7928.00
2019-06-19T05:12:18.103Z,8020.00
2019-06-19T05:13:18.274Z,7944.00
2019-06-19T05:14:18.409Z,8112.00
2019-06-19T05:15:18.568Z,7996.00
2019-06-19T05:16:18.721Z,8024.00
2019-06-19T05:17:18.876Z,8088.00
2019-06-19T05:18:19.032Z,8184.00
2019-06-19T05:19:19.190Z,8168.00
2019-06-19T05:20:19.344Z,8164.00
2019-06-19T05:21:19.499Z,8228.00
2019-06-19T05:22:19.653Z,8276.00
2019-06-19T05:23:21.162Z,8268.00
2019-06-19T05:24:19.966Z,8236.00
2019-06-19T05:25:20.122Z,8228.00
2019-06-19T05:26:20.279Z,8232.00
2019-06-19T05:27:20.434Z,8284.00
2019-06-19T05:28:20.589Z,8328.00
2019-06-19T05:29:20.742Z,8400.00
2019-06-19T05:30:20.908Z,8436.00
2019-06-19T05:31:21.058Z,8440.00
2019-06-19T05:32:33.241Z,8388.00
2019-06-19T05:33:21.367Z,8308.00
2019-06-19T05:34:21.523Z,8244.00
2019-06-19T05:35:21.678Z,8236.00
2019-06-19T05:36:21.833Z,8248.00
2019-06-19T05:37:21.989Z,8212.00
2019-06-19T05:38:22.146Z,8192.00
2019-06-19T05:39:22.303Z,8184.00
2019-06-19T05:40:22.457Z,8140.00
2019-06-19T05:41:22.612Z,8116.00
2019-06-19T05:42:22.769Z,8048.00
2019-06-19T05:43:22.925Z,7988.00
2019-06-19T05:44:23.080Z,7924.00
2019-06-19T05:45:23.235Z,7848.00
2019-06-19T05:46:23.390Z,7768.00
2019-06-19T05:47:23.550Z,7672.00
2019-06-19T05:48:23.706Z,7580.00
2019-06-19T05:49:23.859Z,7480.00
2019-06-19T05:50:24.015Z,7372.00
2019-06-19T05:51:24.170Z,7260.00
2019-06-19T05:52:24.328Z,7164.00
2019-06-19T05:53:24.484Z,7064.00
2019-06-19T05:54:24.640Z,6900.00
2019-06-19T05:55:24.805Z,6656.00
2019-06-19T05:56:24.959Z,6708.00
2019-06-19T05:57:25.116Z,6900.00
2019-06-19T05:58:25.271Z,6916.00
2019-06-19T05:59:25.427Z,6892.00
2019-06-19T06:00:25.584Z,6868.00
2019-06-19T06:01:25.736Z,6848.00
2019-06-19T06:02:25.898Z,6816.00
2019-06-19T06:03:26.050Z,6780.00
2019-06-19T06:04:26.210Z,6760.00
2019-06-19T06:05:26.364Z,6728.00
2019-06-19T06:06:26.534Z,6696.00
2019-06-19T06:07:26.673Z,6656.00
2019-06-19T06:08:27.012Z,6624.00
2019-06-19T06:09:26.986Z,6580.00
2019-06-19T06:10:27.144Z,6552.00
2019-06-19T06:11:27.300Z,6516.00
2019-06-19T06:12:27.455Z,6496.00
2019-06-19T06:13:27.610Z,6472.00
2019-06-19T06:14:27.768Z,6452.00
2019-06-19T06:15:27.925Z,6428.00
2019-06-19T06:16:28.079Z,6408.00
2019-06-19T06:17:28.235Z,6380.00
2019-06-19T06:18:28.426Z,6356.00
2019-06-19T06:19:28.550Z,6328.00
2019-06-19T06:20:28.705Z,6296.00
2019-06-19T06:21:28.862Z,6268.00
2019-06-19T06:22:29.022Z,6240.00
2019-06-19T06:23:29.174Z,6196.00
2019-06-19T06:24:29.342Z,6148.00
2019-06-19T06:25:29.490Z,6096.00
2019-06-19T06:26:29.645Z,6056.00
2019-06-19T06:27:29.801Z,6012.00
2019-06-19T06:28:29.962Z,5972.00
2019-06-19T06:29:30.115Z,5944.00
2019-06-19T06:30:30.313Z,5892.00
2019-06-19T06:31:30.461Z,5872.00
2019-06-19T06:32:30.591Z,5852.00
2019-06-19T06:33:30.753Z,5848.00
2019-06-19T06:34:30.926Z,5836.00
2019-06-19T06:35:31.122Z,5840.00
2019-06-19T06:36:31.240Z,5824.00
2019-06-19T06:37:31.396Z,5816.00
2019-06-19T06:38:32.857Z,5828.00
2019-06-19T06:39:31.713Z,5772.00
2019-06-19T06:40:46.935Z,5236.00
2019-06-19T06:41:32.017Z,4856.00
2019-06-19T06:42:32.177Z,4608.00
2019-06-19T06:43:32.330Z,4572.00
2019-06-19T06:44:32.487Z,4892.00
2019-06-19T06:45:32.644Z,5176.00
2019-06-19T06:46:32.799Z,5596.00
2019-06-19T06:47:32.959Z,5700.00
2019-06-19T06:48:33.125Z,5720.00
2019-06-19T06:49:33.273Z,5728.00
2019-06-19T06:50:33.426Z,5728.00
2019-06-19T06:51:33.584Z,5736.00
2019-06-19T06:52:33.739Z,5736.00
2019-06-19T06:53:33.894Z,5740.00
2019-06-19T06:54:34.050Z,5736.00
2019-06-19T06:55:34.227Z,5732.00
2019-06-19T06:56:34.362Z,5732.00
2019-06-19T06:57:34.519Z,5728.00
2019-06-19T06:58:34.678Z,5728.00
2019-06-19T06:59:34.832Z,5716.00
2019-06-19T07:00:34.989Z,5712.00
2019-06-19T07:01:35.145Z,5708.00
2019-06-19T07:02:35.302Z,5700.00
2019-06-19T07:03:35.460Z,5700.00
2019-06-19T07:04:35.620Z,5692.00
2019-06-19T07:05:35.775Z,5688.00
2019-06-19T07:06:35.933Z,5688.00
2019-06-19T07:07:36.090Z,5688.00
2019-06-19T07:08:36.251Z,5684.00
2019-06-19T07:09:36.406Z,5680.00
2019-06-19T07:10:36.563Z,5676.00
2019-06-19T07:11:36.733Z,5676.00
2019-06-19T07:12:36.876Z,5672.00
2019-06-19T07:13:37.034Z,5668.00
2019-06-19T07:14:37.192Z,5664.00
2019-06-19T07:15:37.349Z,5652.00
2019-06-19T07:16:37.505Z,5648.00
2019-06-19T07:17:37.663Z,5644.00
2019-06-19T07:18:37.821Z,5636.00
2019-06-19T07:19:37.979Z,5624.00
2019-06-19T07:20:38.139Z,5620.00
2019-06-19T07:21:38.337Z,5616.00
2019-06-19T07:22:38.458Z,5612.00
2019-06-19T07:23:38.623Z,5608.00
2019-06-19T07:24:38.775Z,5596.00
2019-06-19T07:25:38.932Z,5584.00
2019-06-19T07:26:52.254Z,5580.00
2019-06-19T07:27:39.247Z,5572.00
2019-06-19T07:28:39.404Z,5564.00
2019-06-19T07:29:39.567Z,5560.00
2019-06-19T07:30:39.727Z,5544.00
2019-06-19T07:31:39.880Z,5548.00
2019-06-19T07:32:40.039Z,5556.00
2019-06-19T07:33:41.628Z,5556.00
2019-06-19T07:34:40.355Z,5552.00
2019-06-19T07:35:40.512Z,5540.00
2019-06-19T07:36:40.669Z,5536.00
2019-06-19T07:37:40.836Z,5540.00
2019-06-19T07:38:40.991Z,5540.00
2019-06-19T07:39:41.152Z,5536.00
2019-06-19T07:40:41.300Z,5536.00
2019-06-19T07:41:41.465Z,5532.00
2019-06-19T07:42:41.617Z,5532.00
2019-06-19T07:43:41.778Z,5532.00
2019-06-19T07:44:41.937Z,5532.00
2019-06-19T07:45:42.092Z,5528.00
2019-06-19T07:46:42.252Z,5536.00
2019-06-19T07:47:42.409Z,5532.00
2019-06-19T07:48:42.567Z,5532.00
2019-06-19T07:49:42.727Z,5540.00
2019-06-19T07:50:42.885Z,5544.00
2019-06-19T07:51:43.043Z,5544.00
2019-06-19T07:52:43.204Z,5540.00
2019-06-19T07:53:43.362Z,5532.00
2019-06-19T07:54:43.520Z,5532.00
2019-06-19T07:55:43.679Z,5536.00
2019-06-19T07:56:43.836Z,5532.00
2019-06-19T07:57:44.125Z,5536.00
2019-06-19T07:58:44.155Z,5532.00
2019-06-19T07:59:44.315Z,5532.00
2019-06-19T08:00:44.465Z,5540.00
2019-06-19T08:01:44.624Z,5548.00
2019-06-19T08:02:44.784Z,5556.00
2019-06-19T08:03:57.454Z,5560.00
2019-06-19T08:04:45.109Z,5572.00
2019-06-19T08:05:45.262Z,5580.00
2019-06-19T08:06:45.423Z,5584.00
2019-06-19T08:07:45.580Z,5588.00
2019-06-19T08:08:45.743Z,5600.00
2019-06-19T08:09:45.899Z,5608.00
2019-06-19T08:10:46.057Z,5604.00
2019-06-19T08:11:46.215Z,5616.00
2019-06-19T08:12:46.383Z,5604.00
2019-06-19T08:13:46.544Z,5616.00
2019-06-19T08:14:46.693Z,5628.00
2019-06-19T08:15:46.851Z,5636.00
2019-06-19T08:16:47.011Z,5648.00
2019-06-19T08:17:47.171Z,5656.00
2019-06-19T08:18:47.337Z,5668.00
2019-06-19T08:19:47.491Z,5680.00
2019-06-19T08:20:47.650Z,5692.00
2019-06-19T08:21:47.807Z,5700.00
2019-06-19T08:22:47.982Z,5716.00
2019-06-19T08:23:48.141Z,5744.00
2019-06-19T08:24:48.288Z,5764.00
2019-06-19T08:25:50.699Z,5784.00
2019-06-19T08:26:48.615Z,5800.00
2019-06-19T08:27:48.799Z,5800.00
2019-06-19T08:28:48.926Z,5804.00
2019-06-19T08:29:49.085Z,5812.00
2019-06-19T08:30:49.247Z,5820.00
2019-06-19T08:31:49.415Z,5832.00
2019-06-19T08:32:49.564Z,5844.00
2019-06-19T08:33:49.724Z,5844.00
2019-06-19T08:34:49.952Z,5856.00
2019-06-19T08:35:50.044Z,5872.00
2019-06-19T08:36:50.203Z,5888.00
2019-06-19T08:37:50.370Z,5892.00
2019-06-19T08:38:50.521Z,5896.00
2019-06-19T08:39:50.690Z,5880.00
2019-06-19T08:41:00.449Z,5872.00
2019-06-19T08:41:51.005Z,5880.00
2019-06-19T08:42:51.158Z,5896.00
2019-06-19T08:43:51.331Z,5908.00
2019-06-19T08:44:51.494Z,5912.00
2019-06-19T08:45:51.642Z,5892.00
2019-06-19T08:46:51.802Z,5880.00
2019-06-19T08:47:51.962Z,5860.00
2019-06-19T08:48:52.121Z,5864.00
2019-06-19T08:49:52.280Z,5876.00
2019-06-19T08:50:52.443Z,5876.00
2019-06-19T08:51:52.598Z,5880.00
2019-06-19T08:52:52.757Z,5892.00
2019-06-19T08:53:52.920Z,5880.00
2019-06-19T08:54:53.080Z,5884.00
2019-06-19T08:55:53.241Z,5892.00
2019-06-19T08:56:53.405Z,5904.00
2019-06-19T08:57:53.561Z,5888.00
2019-06-19T08:58:53.721Z,5868.00
2019-06-19T08:59:53.885Z,5912.00
2019-06-19T09:00:54.042Z,5888.00
2019-06-19T09:01:54.202Z,5892.00
2019-06-19T09:02:54.373Z,5888.00
2019-06-19T09:03:54.527Z,5908.00
2019-06-19T09:04:54.685Z,5904.00
2019-06-19T09:05:54.845Z,5888.00
2019-06-19T09:06:55.009Z,5888.00
2019-06-19T09:07:55.169Z,5900.00
2019-06-19T09:08:55.326Z,5904.00
2019-06-19T09:09:55.488Z,5912.00
2019-06-19T09:10:55.646Z,5892.00
2019-06-19T09:11:55.806Z,5876.00
2019-06-19T09:12:55.967Z,5880.00
2019-06-19T09:13:56.131Z,5908.00
2019-06-19T09:14:56.290Z,5928.00
2019-06-19T09:15:56.456Z,5920.00
2019-06-19T09:16:56.615Z,5924.00
2019-06-19T09:17:56.782Z,5928.00
2019-06-19T09:18:56.935Z,5960.00
2019-06-19T09:19:57.094Z,5596.00
2019-06-19T09:20:57.261Z,5840.00
2019-06-19T09:21:57.428Z,5964.00
2019-06-19T09:22:57.580Z,5948.00
2019-06-19T09:23:57.746Z,5972.00
2019-06-19T09:24:57.907Z,5920.00
2019-06-19T09:25:58.065Z,5552.00
2019-06-19T09:26:58.234Z,5984.00
2019-06-19T09:27:58.394Z,6012.00
2019-06-19T09:28:58.554Z,6008.00
2019-06-19T09:29:58.715Z,5992.00
2019-06-19T09:30:58.877Z,5988.00
2019-06-19T09:31:59.035Z,5984.00
2019-06-19T09:32:59.199Z,5972.00
2019-06-19T09:33:59.358Z,5960.00
2019-06-19T09:34:59.520Z,5952.00
2019-06-19T09:35:59.681Z,5952.00
2019-06-19T09:36:59.843Z,5956.00
2019-06-19T09:38:00.006Z,5952.00
2019-06-19T09:39:00.165Z,5940.00
2019-06-19T09:40:02.587Z,5920.00
2019-06-19T09:41:00.486Z,5920.00
2019-06-19T09:42:00.648Z,5916.00
2019-06-19T09:43:00.809Z,5904.00
2019-06-19T09:44:00.975Z,5904.00
2019-06-19T09:45:01.132Z,5904.00
2019-06-19T09:46:01.291Z,5912.00
2019-06-19T09:47:01.453Z,5912.00
2019-06-19T09:48:01.632Z,5908.00
2019-06-19T09:49:01.782Z,5916.00
2019-06-19T09:50:01.941Z,5924.00
2019-06-19T09:51:02.178Z,5912.00
2019-06-19T09:52:02.285Z,5920.00
2019-06-19T09:53:02.422Z,5916.00
2019-06-19T09:54:04.507Z,5912.00
2019-06-19T09:55:02.744Z,5900.00
2019-06-19T09:56:02.908Z,5896.00
2019-06-19T09:57:03.124Z,5880.00
2019-06-19T09:58:03.230Z,5908.00
2019-06-19T09:59:03.395Z,5920.00
2019-06-19T10:00:03.570Z,5908.00
2019-06-19T10:01:03.714Z,5920.00
2019-06-19T10:02:03.902Z,5900.00
2019-06-19T10:03:04.037Z,5904.00
2019-06-19T10:04:04.201Z,5900.00
2019-06-19T10:05:07.479Z,5900.00
2019-06-19T10:06:04.521Z,5904.00
2019-06-19T10:07:04.685Z,5900.00
2019-06-19T10:08:04.844Z,5884.00
2019-06-19T10:09:05.003Z,5888.00
2019-06-19T10:10:05.168Z,5888.00
2019-06-19T10:11:05.335Z,5896.00
2019-06-19T10:12:05.494Z,5896.00
2019-06-19T10:13:05.654Z,5892.00
2019-06-19T10:14:05.820Z,5896.00
2019-06-19T10:15:05.982Z,5896.00
2019-06-19T10:16:06.138Z,5952.00
2019-06-19T10:17:06.298Z,5948.00
2019-06-19T10:18:06.459Z,5952.00
2019-06-19T10:19:06.623Z,5976.00
2019-06-19T10:20:06.789Z,5980.00
2019-06-19T10:21:06.945Z,6004.00
2019-06-19T10:22:07.114Z,6008.00
2019-06-19T10:23:07.273Z,6056.00
2019-06-19T10:24:07.429Z,6076.00
2019-06-19T10:25:07.727Z,6104.00
2019-06-19T10:26:07.747Z,6104.00
2019-06-19T10:27:07.907Z,6080.00
2019-06-19T10:28:08.071Z,6140.00
2019-06-19T10:29:08.227Z,6132.00
2019-06-19T10:30:08.389Z,6180.00
2019-06-19T10:31:08.549Z,6240.00
2019-06-19T10:32:09.974Z,6236.00
2019-06-19T10:33:08.875Z,6256.00
2019-06-19T10:34:09.039Z,6280.00
2019-06-19T10:35:23.029Z,6300.00
2019-06-19T10:36:09.360Z,6344.00
2019-06-19T10:37:09.540Z,6416.00
2019-06-19T10:38:09.687Z,6424.00
2019-06-19T10:39:09.849Z,6420.00
2019-06-19T10:40:10.060Z,6424.00
2019-06-19T10:41:10.168Z,6432.00
2019-06-19T10:42:10.327Z,6484.00
2019-06-19T10:43:10.495Z,6456.00
2019-06-19T10:44:10.653Z,6440.00
2019-06-19T10:45:10.811Z,6524.00
2019-06-19T10:46:10.980Z,6592.00
2019-06-19T10:47:11.132Z,6516.00
2019-06-19T10:48:11.311Z,6496.00
2019-06-19T10:49:13.636Z,6456.00
2019-06-19T10:50:11.618Z,6508.00
2019-06-19T10:51:11.801Z,6544.00
2019-06-19T10:52:11.944Z,6620.00
2019-06-19T10:53:12.105Z,6648.00
2019-06-19T10:54:12.267Z,6652.00
2019-06-19T10:55:12.429Z,6656.00
2019-06-19T10:56:12.596Z,6612.00
2019-06-19T10:57:12.754Z,6588.00
2019-06-19T10:58:12.911Z,6560.00
2019-06-19T10:59:13.066Z,6572.00
2019-06-19T11:00:13.223Z,6560.00
2019-06-19T11:01:13.405Z,6592.00
2019-06-19T11:02:13.595Z,6636.00
2019-06-19T11:03:13.728Z,6700.00
2019-06-19T11:04:13.886Z,6828.00
2019-06-19T11:05:14.043Z,6964.00
2019-06-19T11:06:14.204Z,7048.00
2019-06-19T11:07:14.367Z,7188.00
2019-06-19T11:08:14.528Z,7420.00
2019-06-19T11:09:14.685Z,7500.00
2019-06-19T11:10:14.974Z,7640.00
2019-06-19T11:11:15.029Z,7720.00
2019-06-19T11:12:15.191Z,7804.00
2019-06-19T11:13:15.355Z,8020.00
2019-06-19T11:14:15.514Z,7984.00
2019-06-19T11:15:15.676Z,7968.00
2019-06-19T11:16:15.839Z,7956.00
2019-06-19T11:17:15.996Z,7868.00
2019-06-19T11:18:16.156Z,7844.00
2019-06-19T11:19:16.317Z,7828.00
2019-06-19T11:20:16.476Z,7840.00
2019-06-19T11:21:16.637Z,7868.00
2019-06-19T11:22:16.798Z,7828.00
2019-06-19T11:23:16.959Z,7812.00
2019-06-19T11:24:17.123Z,7712.00
2019-06-19T11:25:17.286Z,7748.00
2019-06-19T11:26:17.448Z,7744.00
2019-06-19T11:27:17.612Z,7596.00
2019-06-19T11:28:17.771Z,7564.00
2019-06-19T11:29:17.944Z,7448.00
2019-06-19T11:30:18.132Z,7384.00
2019-06-19T11:31:18.264Z,7404.00
2019-06-19T11:32:18.425Z,7428.00
2019-06-19T11:33:18.729Z,7448.00
2019-06-19T11:34:18.745Z,7568.00
2019-06-19T11:35:18.912Z,7616.00
2019-06-19T11:36:19.075Z,7588.00
2019-06-19T11:37:19.250Z,7580.00
2019-06-19T11:38:19.408Z,7516.00
2019-06-19T11:39:19.567Z,7500.00
2019-06-19T11:40:19.731Z,7468.00
2019-06-19T11:41:19.889Z,7400.00
2019-06-19T11:42:20.053Z,7436.00
2019-06-19T11:43:20.215Z,7492.00
2019-06-19T11:44:20.378Z,7436.00
2019-06-19T11:45:20.544Z,7400.00
2019-06-19T11:46:20.714Z,7336.00
2019-06-19T11:47:20.864Z,7340.00
2019-06-19T11:48:21.032Z,7420.00
2019-06-19T11:49:21.191Z,7436.00
2019-06-19T11:50:24.147Z,7432.00
2019-06-19T11:51:21.519Z,7432.00
2019-06-19T11:52:21.678Z,7420.00
2019-06-19T11:53:21.839Z,7424.00
2019-06-19T11:54:22.008Z,7352.00
2019-06-19T11:55:22.165Z,7256.00
2019-06-19T11:56:22.330Z,7288.00
2019-06-19T11:57:22.492Z,7308.00
2019-06-19T11:58:22.654Z,7372.00
2019-06-19T11:59:22.814Z,7432.00
2019-06-19T12:00:23.183Z,7416.00
2019-06-19T12:01:23.135Z,7364.00
2019-06-19T12:02:23.300Z,7328.00
2019-06-19T12:03:27.038Z,7332.00
2019-06-19T12:04:23.623Z,7264.00
2019-06-19T12:05:23.786Z,7148.00
2019-06-19T12:06:23.953Z,7072.00
2019-06-19T12:07:24.195Z,7008.00
2019-06-19T12:08:24.280Z,7012.00
2019-06-19T12:09:24.457Z,7024.00
2019-06-19T12:10:24.608Z,7072.00
2019-06-19T12:11:24.767Z,7132.00
2019-06-19T12:12:24.935Z,7156.00
2019-06-19T12:13:25.094Z,7132.00
2019-06-19T12:14:25.256Z,7052.00
2019-06-19T12:15:25.421Z,7012.00
2019-06-19T12:16:25.584Z,7008.00
2019-06-19T12:17:29.156Z,7020.00
2019-06-19T12:18:25.910Z,7048.00
2019-06-19T12:19:26.079Z,7028.00
2019-06-19T12:20:26.272Z,7036.00
2019-06-19T12:21:26.405Z,7064.00
2019-06-19T12:22:26.564Z,7040.00
2019-06-19T12:23:26.771Z,7024.00
2019-06-19T12:24:26.887Z,7040.00